Time;durP1;ratioP1;P1;durP2;ratioP2;P2;SDS_P1;SDS_P2;PMS_P1;PMS_P2;Temp;Humidity;BMP_temperature;BMP_pressure;BME280_temperature;BME280_humidity;BME280_pressure;Samples;Min_cycle;Max_cycle;Signal;HPM_P1;HPM_P2
2022/01/04 00:01:19;;;;;;;3.05;2.80;;;;;;;10.13;100.00;99978.25;5070696;28;20199;-76
2022/01/04 00:03:45;;;;;;;2.67;2.47;;;;;;;9.87;100.00;99940.75;5072136;28;20198;-76
2022/01/04 00:06:13;;;;;;;1.85;1.75;;;;;;;10.23;100.00;100000.94;5066253;28;20226;-76
2022/01/04 00:08:40;;;;;;;4.60;2.70;;;;;;;10.04;100.00;100008.34;5057445;28;20534;-75
2022/01/04 00:11:14;;;;;;;3.47;3.03;;;;;;;10.03;100.00;99999.69;5071980;28;20587;-76
2022/01/04 00:13:41;;;;;;;4.55;2.50;;;;;;;9.87;100.00;99992.53;5063672;28;20241;-76
2022/01/04 00:16:10;;;;;;;3.53;2.60;;;;;;;9.71;100.00;99967.22;5052192;28;20195;-76
2022/01/04 00:18:37;;;;;;;5.70;2.85;;;;;;;9.67;100.00;99960.25;5056718;28;20202;-76
2022/01/04 00:21:04;;;;;;;2.47;1.77;;;;;;;9.81;100.00;99974.34;5071386;28;20230;-76
2022/01/04 00:23:33;;;;;;;5.70;2.60;;;;;;;9.83;100.00;99982.97;5071547;28;20229;-76
2022/01/04 00:26:00;;;;;;;4.03;2.20;;;;;;;9.88;100.00;99973.59;5070615;28;20218;-75
2022/01/04 00:28:27;;;;;;;3.13;1.80;;;;;;;9.93;100.00;99974.50;5066746;28;20612;-75
2022/01/04 00:30:54;;;;;;;4.50;2.77;;;;;;;10.00;100.00;99991.88;5057664;28;20256;-76
2022/01/04 00:33:21;;;;;;;5.77;2.97;;;;;;;9.79;100.00;99989.84;5057796;28;20191;-77
2022/01/04 00:35:48;;;;;;;3.03;2.47;;;;;;;9.90;100.00;100006.41;5071375;28;20195;-76
2022/01/04 00:38:16;;;;;;;2.87;2.37;;;;;;;9.68;100.00;99990.50;5057926;28;20200;-76
2022/01/04 00:40:44;;;;;;;5.23;2.67;;;;;;;9.78;100.00;100000.16;5071244;28;20203;-75
2022/01/04 00:43:11;;;;;;;1.93;1.83;;;;;;;9.90;100.00;100002.94;5061218;28;20601;-76
2022/01/04 00:45:38;;;;;;;3.08;2.78;;;;;;;9.87;100.00;100008.09;5065227;28;20226;-76
2022/01/04 00:50:50;;;;;;;3.17;2.50;;;;;;;9.72;100.00;99979.34;5063187;28;20224;-77
2022/01/04 00:53:17;;;;;;;3.53;2.40;;;;;;;9.74;100.00;99991.47;5063592;28;20199;-77
2022/01/04 00:55:45;;;;;;;9.77;3.27;;;;;;;9.80;100.00;99999.34;5071049;28;20209;-75
2022/01/04 00:58:12;;;;;;;2.80;2.58;;;;;;;9.80;100.00;99995.88;5070871;28;20199;-76
2022/01/04 01:00:39;;;;;;;5.40;2.63;;;;;;;9.90;100.00;100000.34;5055012;28;20198;-78
2022/01/04 01:03:07;;;;;;;4.50;3.10;;;;;;;9.91;100.00;99994.34;5051734;28;20666;-76
2022/01/04 01:05:34;;;;;;;4.47;3.40;;;;;;;9.86;100.00;100003.75;5052552;28;20230;-77
2022/01/04 01:08:01;;;;;;;4.20;3.00;;;;;;;9.78;100.00;100010.50;5058622;28;20586;-76
2022/01/04 01:13:20;;;;;;;2.43;2.10;;;;;;;9.83;100.00;99994.22;5058172;28;20202;-75
2022/01/04 01:15:47;;;;;;;2.42;2.08;;;;;;;9.87;100.00;100005.50;5071381;28;20588;-75
2022/01/04 01:18:16;;;;;;;2.67;2.47;;;;;;;9.92;100.00;100009.00;5070895;28;20202;-76
2022/01/04 01:20:43;;;;;;;4.63;3.00;;;;;;;9.85;100.00;99991.63;5035198;28;20307;-76
2022/01/04 01:23:10;;;;;;;7.13;2.50;;;;;;;9.93;100.00;99996.09;5056616;28;20588;-77
2022/01/04 01:25:37;;;;;;;3.30;2.50;;;;;;;9.79;100.00;99991.53;5070546;28;20223;-76
2022/01/04 01:28:04;;;;;;;3.00;2.70;;;;;;;9.85;100.00;99997.69;5062241;28;20740;-75
2022/01/04 01:30:36;;;;;;;3.65;2.70;;;;;;;9.79;100.00;99995.00;5053764;28;20200;-77
2022/01/04 01:33:03;;;;;;;3.20;2.70;;;;;;;9.84;100.00;100002.84;5063530;28;20591;-77
2022/01/04 01:35:30;;;;;;;2.45;2.20;;;;;;;9.87;100.00;99989.97;5069760;28;20198;-76
2022/01/04 01:37:57;;;;;;;3.17;2.80;;;;;;;9.82;100.00;99987.28;5069829;28;20199;-78
2022/01/04 01:40:24;;;;;;;5.00;2.90;;;;;;;9.88;100.00;99976.19;5068814;28;20563;-77
2022/01/04 01:42:51;;;;;;;3.35;3.03;;;;;;;9.85;100.00;99976.09;5061974;28;20583;-76
2022/01/04 01:45:21;;;;;;;4.28;3.00;;;;;;;9.76;100.00;99970.78;5061759;28;20230;-75
2022/01/04 01:47:50;;;;;;;2.63;2.42;;;;;;;9.58;100.00;99947.19;5057652;28;20693;-76
2022/01/04 01:50:17;;;;;;;2.30;2.10;;;;;;;9.77;100.00;99985.47;5054916;28;20638;-76
2022/01/04 01:52:48;;;;;;;3.90;3.03;;;;;;;9.71;100.00;99977.59;5055031;28;20199;-76
2022/01/04 01:55:18;;;;;;;2.97;2.27;;;;;;;9.74;100.00;99981.09;5053995;28;20203;-76
2022/01/04 01:57:45;;;;;;;5.43;3.10;;;;;;;9.62;100.00;99961.91;5071497;28;20199;-76
2022/01/04 02:00:15;;;;;;;3.57;2.70;;;;;;;9.65;100.00;99969.72;5059381;28;20728;-76
2022/01/04 02:02:42;;;;;;;5.07;3.37;;;;;;;9.61;100.00;99965.34;5044203;28;20587;-75
2022/01/04 02:05:11;;;;;;;3.40;2.60;;;;;;;9.65;100.00;99973.19;5055697;28;20257;-76
2022/01/04 02:07:40;;;;;;;3.70;2.73;;;;;;;9.59;100.00;99987.75;5068840;28;20198;-75
2022/01/04 02:10:08;;;;;;;5.63;3.20;;;;;;;9.61;100.00;99979.16;5072357;28;20207;-76
2022/01/04 02:12:37;;;;;;;6.77;2.67;;;;;;;9.57;100.00;99986.84;5074800;28;20264;-77
2022/01/04 02:15:05;;;;;;;4.17;3.07;;;;;;;9.52;100.00;99986.78;5073607;28;20275;-76
2022/01/04 02:17:32;;;;;;;5.83;2.80;;;;;;;9.59;100.00;99972.22;5074280;28;20199;-76
2022/01/04 02:20:01;;;;;;;3.83;3.40;;;;;;;9.65;100.00;99972.31;5057861;28;20227;-76
2022/01/04 02:22:28;;;;;;;4.93;2.83;;;;;;;9.60;100.00;99990.34;5054224;28;20235;-77
2022/01/04 02:24:55;;;;;;;3.60;2.87;;;;;;;9.59;100.00;99990.34;5053338;28;20207;-76
2022/01/04 02:27:22;;;;;;;3.03;1.93;;;;;;;9.63;100.00;99984.38;5060064;28;20225;-76
2022/01/04 02:29:49;;;;;;;6.73;3.10;;;;;;;9.41;100.00;99973.66;5072423;28;20191;-76
2022/01/04 02:32:16;;;;;;;5.00;2.80;;;;;;;9.53;100.00;99987.63;5055404;28;20582;-74
2022/01/04 02:34:49;;;;;;;4.37;3.07;;;;;;;9.54;100.00;99979.91;5055318;28;20196;-76
2022/01/04 02:37:20;;;;;;;4.00;3.10;;;;;;;9.66;100.00;99992.19;5053870;28;20769;-77
2022/01/04 02:39:47;;;;;;;3.57;2.73;;;;;;;9.10;100.00;99922.19;5058851;28;20207;-76
2022/01/04 02:42:14;;;;;;;4.47;2.97;;;;;;;9.56;100.00;100009.25;5053968;28;20678;-77
2022/01/04 02:44:41;;;;;;;4.30;2.90;;;;;;;9.51;100.00;99999.69;5067503;28;20571;-76
2022/01/04 02:47:08;;;;;;;2.90;2.70;;;;;;;9.53;100.00;100016.09;5073233;28;20316;-76
2022/01/04 02:49:35;;;;;;;12.93;4.77;;;;;;;9.52;100.00;100009.19;5066476;28;20198;-77
2022/01/04 02:52:02;;;;;;;3.53;3.20;;;;;;;9.45;100.00;99993.53;5062803;28;20195;-75
2022/01/04 02:54:30;;;;;;;3.80;2.80;;;;;;;9.55;100.00;100014.44;5065185;28;20207;-75
2022/01/04 02:56:57;;;;;;;5.70;3.77;;;;;;;9.49;100.00;100012.56;5072464;28;20195;-75
2022/01/04 02:59:24;;;;;;;4.77;3.20;;;;;;;9.55;100.00;100004.94;5067076;28;20681;-75
2022/01/04 03:01:50;;;;;;;3.17;2.70;;;;;;;9.61;100.00;100002.47;5060358;28;20207;-75
2022/01/04 03:04:18;;;;;;;4.33;3.37;;;;;;;9.50;100.00;100010.88;5054870;28;20214;-76
2022/01/04 03:06:44;;;;;;;2.60;2.40;;;;;;;9.53;100.00;100006.63;5053587;28;20223;-75
2022/01/04 03:09:11;;;;;;;8.73;3.87;;;;;;;9.48;100.00;100009.97;5062637;28;20205;-76
2022/01/04 03:11:39;;;;;;;6.03;2.70;;;;;;;9.59;100.00;100016.22;5067153;28;20203;-77
2022/01/04 03:14:06;;;;;;;6.18;3.65;;;;;;;9.59;100.00;100018.81;5063813;28;20625;-75
2022/01/04 03:16:33;;;;;;;3.73;2.97;;;;;;;9.62;100.00;100019.75;5053127;28;20196;-76
2022/01/04 03:19:07;;;;;;;3.17;2.90;;;;;;;9.68;100.00;100018.97;5060659;28;20191;-77
2022/01/04 03:21:35;;;;;;;4.37;3.17;;;;;;;9.56;100.00;100003.25;5072691;28;20669;-76
2022/01/04 03:24:03;;;;;;;2.77;2.10;;;;;;;9.65;100.00;100034.44;5072764;28;20277;-75
2022/01/04 03:26:30;;;;;;;4.87;3.30;;;;;;;9.56;100.00;100029.97;5071513;28;20727;-75
2022/01/04 03:28:59;;;;;;;3.50;3.20;;;;;;;9.65;100.00;100034.44;5066456;28;20206;-78
2022/01/04 03:31:26;;;;;;;3.80;3.10;;;;;;;9.69;100.00;100020.72;5053242;28;20655;-78
2022/01/04 03:33:53;;;;;;;3.47;3.17;;;;;;;9.66;100.00;100021.53;5053934;28;20203;-76
2022/01/04 03:36:22;;;;;;;3.53;3.13;;;;;;;9.75;100.00;100011.34;5052645;28;20199;-76
2022/01/04 03:38:49;;;;;;;3.07;2.67;;;;;;;9.70;100.00;100019.88;5063192;28;20253;-77
2022/01/04 03:41:17;;;;;;;6.63;2.40;;;;;;;9.74;100.00;100016.47;5052983;28;20203;-76
2022/01/04 03:43:44;;;;;;;3.53;2.37;;;;;;;9.64;100.00;100030.09;5066207;28;20199;-75
2022/01/04 03:46:12;;;;;;;3.53;2.77;;;;;;;9.62;100.00;100021.44;5072645;28;20218;-76
2022/01/04 03:48:39;;;;;;;4.33;3.23;;;;;;;9.13;100.00;99950.69;5068093;28;20598;-76
2022/01/04 03:51:07;;;;;;;4.57;3.13;;;;;;;9.58;100.00;100019.66;5052915;28;20290;-77
2022/01/04 03:53:34;;;;;;;4.03;3.63;;;;;;;9.22;100.00;99968.97;5067550;28;20633;-75
2022/01/04 03:56:01;;;;;;;5.47;3.37;;;;;;;9.59;100.00;100026.59;5071802;28;20202;-76
2022/01/04 03:58:28;;;;;;;6.37;3.73;;;;;;;9.68;100.00;100018.97;5070957;28;20202;-75
2022/01/04 04:00:55;;;;;;;9.07;4.77;;;;;;;9.66;100.00;100023.25;5052611;28;20249;-78
2022/01/04 04:03:23;;;;;;;9.27;4.03;;;;;;;9.66;100.00;100021.53;5052589;28;20196;-76
2022/01/04 04:05:50;;;;;;;9.03;4.23;;;;;;;9.68;100.00;100017.25;5052379;28;20207;-75
2022/01/04 04:08:18;;;;;;;12.70;6.90;;;;;;;9.64;100.00;100019.75;5052480;28;20207;-77
2022/01/04 04:10:45;;;;;;;8.17;5.00;;;;;;;9.22;100.00;99948.28;5069799;28;20198;-76
2022/01/04 04:13:12;;;;;;;10.10;4.23;;;;;;;9.56;100.00;100008.41;5057618;28;20268;-75
2022/01/04 04:15:40;;;;;;;7.67;3.50;;;;;;;9.58;100.00;100009.28;5057769;28;20638;-76
2022/01/04 04:18:07;;;;;;;4.63;3.57;;;;;;;9.65;100.00;100008.56;5068128;28;20208;-76
2022/01/04 04:20:36;;;;;;;7.13;3.80;;;;;;;9.60;100.00;99999.81;5052647;28;20294;-76
2022/01/04 04:23:03;;;;;;;2.40;2.20;;;;;;;9.50;100.00;99974.63;5052276;28;20199;-77
2022/01/04 04:25:30;;;;;;;3.27;2.97;;;;;;;9.66;100.00;100016.38;5051267;28;20195;-77
2022/01/04 04:27:56;;;;;;;5.63;3.43;;;;;;;9.61;100.00;100019.69;5051958;28;20269;-77
2022/01/04 04:30:23;;;;;;;3.80;2.83;;;;;;;9.63;100.00;100015.44;5052821;28;20210;-76
2022/01/04 04:32:50;;;;;;;5.00;3.50;;;;;;;9.60;100.00;100012.78;5070913;28;20598;-77
2022/01/04 04:35:17;;;;;;;4.30;2.93;;;;;;;9.46;100.00;100013.41;5066468;28;20214;-77
2022/01/04 04:37:45;;;;;;;3.00;2.70;;;;;;;9.41;100.00;100012.47;5071184;28;20195;-76
2022/01/04 04:40:13;;;;;;;5.63;3.53;;;;;;;9.28;100.00;99991.50;5063902;28;20199;-76
2022/01/04 04:42:40;;;;;;;5.47;3.60;;;;;;;9.49;100.00;100012.56;5061671;28;20210;-74
2022/01/04 04:45:08;;;;;;;7.63;4.27;;;;;;;9.41;100.00;100009.00;5065846;28;20204;-76
2022/01/04 04:47:36;;;;;;;3.87;3.07;;;;;;;9.39;100.00;100002.91;5052027;28;20223;-75
2022/01/04 04:50:04;;;;;;;4.47;2.90;;;;;;;9.30;100.00;100008.81;5060410;28;20690;-74
2022/01/04 04:52:31;;;;;;;8.53;3.33;;;;;;;9.21;100.00;99984.47;5051994;28;20203;-75
2022/01/04 04:54:59;;;;;;;4.77;3.23;;;;;;;9.37;100.00;100014.97;5049983;28;20446;-75
2022/01/04 04:57:26;;;;;;;3.67;3.27;;;;;;;9.33;100.00;100010.56;5052282;28;20199;-75
2022/01/04 04:59:53;;;;;;;6.50;4.63;;;;;;;9.39;100.00;100016.72;5067701;28;20199;-79
2022/01/04 05:02:19;;;;;;;4.10;3.20;;;;;;;9.36;100.00;100008.91;5071228;28;20199;-75
2022/01/04 05:04:46;;;;;;;4.07;3.63;;;;;;;9.21;100.00;100000.84;5057952;28;20203;-74
2022/01/04 05:07:13;;;;;;;4.10;3.10;;;;;;;9.25;100.00;100007.84;5051694;28;20215;-76
2022/01/04 05:09:40;;;;;;;6.83;3.80;;;;;;;9.08;100.00;100009.22;5054020;28;20226;-76
2022/01/04 05:12:10;;;;;;;4.33;3.07;;;;;;;9.20;100.00;100024.13;5050927;28;20207;-75
2022/01/04 05:14:37;;;;;;;3.57;3.27;;;;;;;9.16;100.00;100015.44;5052259;28;20639;-76
2022/01/04 05:17:05;;;;;;;3.57;2.63;;;;;;;9.24;100.00;100024.19;5063606;28;20227;-75
2022/01/04 05:19:31;;;;;;;3.43;3.03;;;;;;;9.07;100.00;100014.38;5063109;28;20218;-75
2022/01/04 05:21:58;;;;;;;5.37;2.93;;;;;;;9.13;100.00;100033.44;5071920;28;20230;-75
2022/01/04 05:24:25;;;;;;;2.87;2.40;;;;;;;9.19;100.00;100036.19;5074605;28;20203;-77
2022/01/04 05:26:52;;;;;;;4.60;2.97;;;;;;;8.94;100.00;99992.56;5064221;28;20226;-76
2022/01/04 05:29:20;;;;;;;2.73;2.33;;;;;;;9.17;100.00;100040.44;5065709;28;20199;-76
2022/01/04 05:31:47;;;;;;;3.57;3.13;;;;;;;9.13;100.00;100043.81;5075123;28;20206;-75
2022/01/04 05:34:13;;;;;;;5.40;3.70;;;;;;;9.19;100.00;100048.25;5073364;28;20191;-77
2022/01/04 05:36:40;;;;;;;9.73;4.97;;;;;;;9.19;100.00;100036.19;5073035;28;20191;-77
2022/01/04 05:39:07;;;;;;;10.97;4.23;;;;;;;9.20;100.00;100032.75;5072287;28;20206;-75
2022/01/04 05:41:34;;;;;;;7.87;4.10;;;;;;;8.85;100.00;99969.09;5055576;28;20207;-75
2022/01/04 05:44:01;;;;;;;6.13;4.10;;;;;;;9.20;100.00;100030.19;5052225;28;20238;-75
2022/01/04 05:46:29;;;;;;;5.03;3.20;;;;;;;9.29;100.00;100022.56;5055822;28;20698;-77
2022/01/04 05:48:56;;;;;;;16.07;5.40;;;;;;;9.29;100.00;100029.47;5054488;28;20200;-75
2022/01/04 05:51:22;;;;;;;8.83;4.53;;;;;;;9.37;100.00;100033.06;5055075;28;20203;-75
2022/01/04 05:53:49;;;;;;;13.57;6.50;;;;;;;9.31;100.00;100028.63;5054980;28;20206;-77
2022/01/04 05:56:16;;;;;;;12.60;5.40;;;;;;;9.32;100.00;100025.22;5059051;28;20202;-76
2022/01/04 05:58:43;;;;;;;6.40;4.10;;;;;;;9.32;100.00;100019.16;5074838;28;20214;-75
2022/01/04 06:01:10;;;;;;;8.33;3.77;;;;;;;9.40;100.00;100035.72;5064240;28;20211;-75
2022/01/04 06:03:38;;;;;;;14.93;5.33;;;;;;;9.38;100.00;100033.09;5052597;28;20674;-74
2022/01/04 06:06:05;;;;;;;8.37;5.53;;;;;;;9.45;100.00;100032.34;5055024;28;20705;-74
2022/01/04 06:08:35;;;;;;;9.48;5.15;;;;;;;9.41;100.00;100037.47;5050424;28;20298;-72
2022/01/04 06:11:02;;;;;;;13.53;4.03;;;;;;;9.44;100.00;100040.09;5052341;28;20203;-74
2022/01/04 06:16:13;;;;;;;7.83;4.07;;;;;;;9.46;100.00;100053.94;5069548;28;20503;-74
2022/01/04 06:18:42;;;;;;;5.53;3.30;;;;;;;9.50;100.00;100044.50;5065237;28;20584;-74
2022/01/04 06:21:10;;;;;;;15.15;5.97;;;;;;;9.57;100.00;100047.25;5057075;28;20236;-74
2022/01/04 06:23:37;;;;;;;12.50;6.13;;;;;;;9.44;100.00;100047.88;5074149;28;20253;-73
2022/01/04 06:26:05;;;;;;;10.43;5.37;;;;;;;9.55;100.00;100050.66;5058878;28;20196;-73
2022/01/04 06:28:32;;;;;;;10.20;5.68;;;;;;;9.63;100.00;100056.84;5067047;28;20215;-74
2022/01/04 06:30:59;;;;;;;5.87;4.07;;;;;;;9.64;100.00;100063.75;5073082;28;20230;-75
2022/01/04 06:33:26;;;;;;;3.97;2.45;;;;;;;9.70;100.00;100056.97;5073936;28;20194;-74
2022/01/04 06:35:54;;;;;;;8.90;4.23;;;;;;;9.76;100.00;100062.28;5061479;28;20200;-74
2022/01/04 06:38:21;;;;;;;6.23;4.27;;;;;;;9.32;100.00;100001.06;5053841;28;20195;-74
2022/01/04 06:40:48;;;;;;;8.70;4.18;;;;;;;9.74;100.00;100073.44;5054090;28;20199;-73
2022/01/04 06:43:15;;;;;;;8.02;4.75;;;;;;;9.75;100.00;100077.78;5063158;28;20199;-73
2022/01/04 06:45:41;;;;;;;11.63;5.93;;;;;;;9.70;100.00;100074.25;5055820;28;20200;-74
2022/01/04 06:48:09;;;;;;;12.97;5.93;;;;;;;9.75;100.00;100078.66;5033896;28;20235;-73
2022/01/04 06:50:36;;;;;;;12.50;6.43;;;;;;;9.73;100.00;100069.13;5034039;28;20274;-73
2022/01/04 06:53:04;;;;;;;6.17;4.07;;;;;;;9.80;100.00;100070.97;5033883;28;20204;-76
2022/01/04 06:55:31;;;;;;;9.70;6.17;;;;;;;9.68;100.00;100065.56;5042899;28;20196;-75
2022/01/04 06:57:58;;;;;;;13.67;6.77;;;;;;;9.66;100.00;100080.22;5053648;28;20222;-76
2022/01/04 07:00:25;;;;;;;25.17;10.77;;;;;;;9.70;100.00;100074.25;5048309;28;20204;-73
2022/01/04 07:02:51;;;;;;;24.27;10.32;;;;;;;9.84;100.00;100073.66;5032889;28;20212;-76
2022/01/04 07:05:18;;;;;;;14.43;8.97;;;;;;;9.89;100.00;100086.66;5033415;28;20254;-72
2022/01/04 07:07:45;;;;;;;9.47;5.40;;;;;;;9.91;100.00;100088.44;5052859;28;20235;-74
2022/01/04 07:10:13;;;;;;;6.75;4.63;;;;;;;9.98;100.00;100091.13;5053155;28;20195;-75
2022/01/04 07:12:40;;;;;;;10.20;5.13;;;;;;;10.06;100.00;100090.41;5052952;28;20204;-74
2022/01/04 07:15:09;;;;;;;10.40;4.27;;;;;;;9.99;100.00;100078.19;5052488;28;20203;-73
2022/01/04 07:17:39;;;;;;;9.02;5.28;;;;;;;10.12;100.00;100089.66;5049794;28;20577;-74
2022/01/04 07:20:07;;;;;;;12.82;4.85;;;;;;;10.19;99.73;100087.22;5052250;28;20226;-73
2022/01/04 07:22:34;;;;;;;11.93;4.47;;;;;;;10.25;98.60;100082.13;5052223;28;20677;-73
2022/01/04 07:25:01;;;;;;;23.63;7.13;;;;;;;10.30;97.30;100085.69;5051923;28;20196;-74
2022/01/04 07:27:29;;;;;;;17.43;6.80;;;;;;;10.40;97.13;100092.75;5052233;28;20223;-73
2022/01/04 07:29:56;;;;;;;12.82;4.68;;;;;;;10.55;95.53;100091.25;5036937;28;20571;-74
2022/01/04 07:32:23;;;;;;;16.33;6.13;;;;;;;10.61;94.66;100092.19;5032532;28;20231;-74
2022/01/04 07:34:49;;;;;;;15.88;5.90;;;;;;;10.66;93.55;100094.88;5032565;28;20262;-73
2022/01/04 07:37:16;;;;;;;8.43;4.10;;;;;;;10.75;93.41;100089.81;5032255;28;20575;-73
2022/01/04 07:39:43;;;;;;;16.50;5.70;;;;;;;10.75;92.40;100085.50;5032373;28;20648;-74
2022/01/04 07:42:10;;;;;;;13.20;4.65;;;;;;;10.84;92.01;100080.41;5032119;28;20725;-73
2022/01/04 07:44:38;;;;;;;14.38;5.20;;;;;;;10.87;91.36;100074.44;5032004;28;20679;-73
2022/01/04 07:47:05;;;;;;;9.05;4.28;;;;;;;10.94;90.38;100076.25;5032375;28;20200;-74
2022/01/04 07:49:32;;;;;;;15.05;5.93;;;;;;;10.97;90.23;100076.28;5032320;28;20207;-73
2022/01/04 07:51:59;;;;;;;9.02;4.68;;;;;;;11.07;89.67;100067.75;5032396;28;20234;-73
2022/01/04 07:54:26;;;;;;;6.70;3.92;;;;;;;11.13;88.44;100073.03;5032264;28;20269;-74
2022/01/04 07:56:53;;;;;;;13.68;4.68;;;;;;;11.27;87.39;100071.47;5031417;28;20192;-74
2022/01/04 07:59:20;;;;;;;13.48;4.35;;;;;;;11.30;86.22;100075.84;5032075;28;20200;-74
2022/01/04 08:01:48;;;;;;;8.70;4.13;;;;;;;11.37;85.79;100075.94;5032230;28;20216;-73
2022/01/04 08:04:15;;;;;;;8.95;4.07;;;;;;;11.45;84.35;100068.22;5031775;28;20753;-74
2022/01/04 08:06:42;;;;;;;8.23;4.32;;;;;;;11.52;83.75;100071.78;5032359;28;20611;-73
2022/01/04 08:09:09;;;;;;;6.57;4.43;;;;;;;11.59;83.53;100081.38;5032031;28;20223;-74
2022/01/04 08:11:35;;;;;;;10.07;3.83;;;;;;;11.55;82.71;100072.69;5031894;28;20210;-74
2022/01/04 08:14:02;;;;;;;6.78;4.50;;;;;;;11.62;82.31;100073.59;5032039;28;20204;-74
2022/01/04 08:16:29;;;;;;;8.02;3.92;;;;;;;11.70;82.02;100088.41;5032445;28;20591;-75
2022/01/04 08:18:57;;;;;;;11.07;3.80;;;;;;;11.74;82.48;100099.72;5032219;28;20196;-73
2022/01/04 08:21:24;;;;;;;11.07;4.82;;;;;;;11.79;81.88;100103.25;5031394;28;20738;-73
2022/01/04 08:23:51;;;;;;;6.90;4.05;;;;;;;11.86;81.13;100092.06;5031771;28;20204;-72
2022/01/04 08:26:18;;;;;;;5.95;3.90;;;;;;;11.86;80.91;100094.66;5033733;28;20265;-75
2022/01/04 08:28:45;;;;;;;4.72;2.78;;;;;;;11.84;80.95;100081.66;5050904;28;20227;-74
2022/01/04 08:31:12;;;;;;;7.43;3.65;;;;;;;11.97;79.79;100087.84;5051914;28;20207;-72
2022/01/04 08:33:39;;;;;;;7.95;3.70;;;;;;;11.94;79.71;100093.03;5051645;28;20199;-73
2022/01/04 08:36:10;;;;;;;8.48;5.20;;;;;;;12.09;79.85;100098.38;5051634;28;20192;-73
2022/01/04 08:38:39;;;;;;;6.50;3.30;;;;;;;12.11;78.01;100094.03;5051220;28;20667;-73
2022/01/04 08:41:06;;;;;;;8.68;4.25;;;;;;;12.15;76.54;100097.53;5051448;28;20207;-74
2022/01/04 08:43:32;;;;;;;9.13;4.25;;;;;;;12.25;76.10;100087.22;5051132;28;20211;-72
2022/01/04 08:45:59;;;;;;;14.73;5.03;;;;;;;12.27;75.49;100088.09;5051245;28;20265;-74
2022/01/04 08:48:26;;;;;;;6.07;3.88;;;;;;;12.29;74.89;100081.19;5050679;28;20219;-73
2022/01/04 08:50:53;;;;;;;9.10;5.95;;;;;;;12.37;83.37;100069.16;5045026;28;20200;-77
2022/01/04 08:53:21;;;;;;;8.77;4.63;;;;;;;12.49;78.37;100070.06;5031002;28;20203;-74
2022/01/04 08:55:48;;;;;;;11.55;5.22;;;;;;;12.50;78.04;100066.59;5030227;28;20200;-78
2022/01/04 08:58:15;;;;;;;32.40;11.95;;;;;;;12.57;76.11;100056.25;5030718;28;20232;-74
2022/01/04 09:00:43;;;;;;;20.55;7.95;;;;;;;12.59;75.18;100048.47;5030811;28;20580;-73
2022/01/04 09:03:10;;;;;;;35.92;10.98;;;;;;;12.59;74.22;100043.28;5031337;28;20204;-72
2022/01/04 09:05:37;;;;;;;16.48;7.78;;;;;;;12.63;75.36;100050.22;5030895;28;20644;-73
2022/01/04 09:08:04;;;;;;;15.20;7.20;;;;;;;12.61;74.33;100036.34;5031014;28;20227;-73
2022/01/04 09:10:34;;;;;;;7.63;4.45;;;;;;;12.69;72.50;100045.06;5030832;28;20208;-73
2022/01/04 09:13:05;;;;;;;11.00;5.10;;;;;;;12.79;71.51;100046.84;5031026;28;20235;-73
2022/01/04 09:15:56;;;;;;;6.25;2.78;;;;;;;12.79;72.09;100037.31;5049103;28;20287;-73
2022/01/04 09:21:07;;;;;;;8.88;5.05;;;;;;;12.95;71.42;100032.19;5050686;28;20625;-74
2022/01/04 09:23:34;;;;;;;13.82;8.15;;;;;;;13.06;70.91;100028.75;5038698;28;20692;-73
2022/01/04 09:26:02;;;;;;;15.50;6.95;;;;;;;13.15;69.87;100026.25;5029861;28;20667;-76
2022/01/04 09:28:29;;;;;;;9.85;5.95;;;;;;;13.00;70.72;99987.09;5031287;28;20733;-76
2022/01/04 09:30:57;;;;;;;8.00;5.70;;;;;;;13.29;67.28;100019.34;5031579;28;20196;-76
2022/01/04 09:33:25;;;;;;;8.70;3.65;;;;;;;13.28;66.58;100011.50;5031468;28;20589;-73
2022/01/04 09:35:52;;;;;;;4.97;3.05;;;;;;;13.31;66.99;100007.19;5031322;28;20208;-73
2022/01/04 09:38:20;;;;;;;6.18;3.55;;;;;;;13.18;67.91;99988.94;5031532;28;20203;-74
2022/01/04 09:40:48;;;;;;;6.10;3.40;;;;;;;13.26;67.01;100005.44;5031377;28;20568;-73
2022/01/04 09:43:20;;;;;;;5.80;3.55;;;;;;;13.43;65.60;100010.69;5031449;28;20196;-73
2022/01/04 09:45:47;;;;;;;5.65;3.92;;;;;;;13.44;70.42;100013.31;5031200;28;20746;-73
2022/01/04 09:48:14;;;;;;;4.90;3.35;;;;;;;13.60;65.84;100006.38;5031104;28;20224;-73
2022/01/04 09:50:43;;;;;;;8.75;2.67;;;;;;;13.60;64.86;99990.75;5031432;28;20208;-73
2022/01/04 09:53:12;;;;;;;3.45;3.15;;;;;;;13.64;67.32;99989.88;5031374;28;20203;-73
2022/01/04 09:55:42;;;;;;;9.85;3.85;;;;;;;13.60;65.99;99989.00;5037580;28;20253;-73
2022/01/04 09:58:10;;;;;;;8.60;4.18;;;;;;;13.54;64.43;99962.97;5051165;28;20298;-73
2022/01/04 10:00:38;;;;;;;13.75;5.28;;;;;;;13.90;65.55;99977.75;5050861;28;20678;-73
2022/01/04 10:03:15;;;;;;;7.68;3.90;;;;;;;14.01;64.60;99981.22;5050939;28;20204;-73
2022/01/04 10:05:42;;;;;;;12.82;5.05;;;;;;;14.05;65.02;99988.19;5051442;28;20199;-73
2022/01/04 10:08:11;;;;;;;6.05;4.22;;;;;;;13.93;63.80;99977.75;5054390;28;20219;-75
2022/01/04 10:10:39;;;;;;;6.40;5.18;;;;;;;13.83;63.88;99949.94;5054373;28;20199;-74
2022/01/04 10:13:09;;;;;;;12.52;5.50;;;;;;;13.96;63.54;99972.53;5054313;28;20203;-73
2022/01/04 10:15:40;;;;;;;4.38;3.10;;;;;;;13.89;63.31;99960.38;5054253;28;20670;-74
2022/01/04 10:18:24;;;;;;;8.90;4.40;;;;;;;13.25;63.17;99853.56;5054250;28;20200;-74
2022/01/04 10:21:10;;;;;;;8.90;4.70;;;;;;;13.96;64.39;99956.00;5054220;28;20278;-77
2022/01/04 10:23:49;;;;;;;7.97;4.47;;;;;;;13.90;64.13;99951.69;5054436;28;20219;-77
2022/01/04 10:26:17;;;;;;;8.43;4.05;;;;;;;13.90;63.80;99952.56;5053637;28;20211;-74
2022/01/04 10:28:46;;;;;;;3.72;3.42;;;;;;;13.93;62.97;99956.03;5054578;28;20231;-75
2022/01/04 10:31:16;;;;;;;4.38;2.95;;;;;;;14.00;63.09;99956.03;5053962;28;20690;-74
2022/01/04 10:33:43;;;;;;;7.97;4.53;;;;;;;14.06;63.24;99960.34;5053854;28;20195;-74
2022/01/04 10:36:12;;;;;;;8.95;3.92;;;;;;;14.15;62.99;99953.41;5054139;28;20200;-74
2022/01/04 10:38:41;;;;;;;10.93;3.85;;;;;;;14.25;62.61;99955.13;5053851;28;20192;-73
2022/01/04 10:41:10;;;;;;;11.35;4.07;;;;;;;14.32;62.41;99945.53;5053864;28;20278;-73
2022/01/04 10:43:39;;;;;;;19.67;7.38;;;;;;;14.38;63.08;99948.16;5053889;28;20203;-73
2022/01/04 10:46:06;;;;;;;10.30;4.40;;;;;;;14.42;62.15;99936.84;5054085;28;20208;-74
2022/01/04 10:48:39;;;;;;;4.55;3.13;;;;;;;14.35;63.30;99932.50;5054368;28;20239;-73
2022/01/04 10:51:08;;;;;;;8.70;3.70;;;;;;;14.47;63.38;99926.41;5054260;28;20294;-73
2022/01/04 10:53:37;;;;;;;4.35;3.00;;;;;;;14.37;62.90;99918.63;5053509;28;20195;-73
2022/01/04 10:56:06;;;;;;;5.93;3.30;;;;;;;14.52;62.90;99919.44;5052763;28;20195;-73
2022/01/04 10:58:36;;;;;;;9.07;3.10;;;;;;;14.41;63.42;99908.16;5053446;28;20199;-73
2022/01/04 11:01:06;;;;;;;7.13;3.25;;;;;;;14.41;65.13;99898.59;5053481;28;20709;-72
2022/01/04 11:03:36;;;;;;;7.00;3.28;;;;;;;14.46;64.23;99902.06;5053404;28;20208;-74
2022/01/04 11:06:12;;;;;;;8.07;3.67;;;;;;;14.47;64.58;99897.69;5053355;28;20211;-73
2022/01/04 11:08:39;;;;;;;6.10;3.45;;;;;;;14.34;64.85;99889.91;5053162;28;20724;-73
2022/01/04 11:11:06;;;;;;;4.18;3.55;;;;;;;14.38;64.81;99878.59;5053616;28;20195;-72
2022/01/04 11:13:34;;;;;;;8.15;2.83;;;;;;;14.44;64.41;99892.50;5053648;28;20629;-72
2022/01/04 11:16:02;;;;;;;4.47;3.03;;;;;;;14.40;70.89;99889.03;5053526;28;20219;-72
2022/01/04 11:18:29;;;;;;;10.52;3.65;;;;;;;14.44;67.16;99882.94;5052752;28;20206;-73
2022/01/04 11:20:58;;;;;;;7.53;3.45;;;;;;;14.41;66.50;99856.88;5053112;28;20251;-72
2022/01/04 11:23:27;;;;;;;10.10;4.35;;;;;;;14.58;65.14;99877.66;5053277;28;20195;-74
2022/01/04 11:25:55;;;;;;;8.52;3.47;;;;;;;14.63;64.76;99883.72;5052340;28;20203;-74
2022/01/04 11:28:23;;;;;;;3.70;2.10;;;;;;;14.56;64.52;99882.00;5052969;28;20220;-73
2022/01/04 11:31:24;;;;;;;7.10;3.58;;;;;;;14.65;64.36;99876.75;5053285;28;20211;-73
2022/01/04 11:33:57;;;;;;;12.85;4.85;;;;;;;14.69;64.68;99866.31;5020215;28;20196;-73
2022/01/04 11:36:28;;;;;;;7.70;3.75;;;;;;;14.69;64.05;99857.59;5052762;28;20316;-73
2022/01/04 11:38:54;;;;;;;7.13;2.67;;;;;;;14.64;64.20;99869.78;5053026;28;20192;-75
2022/01/04 11:41:25;;;;;;;10.52;4.43;;;;;;;14.17;64.93;99779.56;5052603;28;20695;-74